Time;durP1;ratioP1;P1;durP2;ratioP2;P2;SDS_P1;SDS_P2;PMS_P1;PMS_P2;Temp;Humidity;BMP_temperature;BMP_pressure;BME280_temperature;BME280_humidity;BME280_pressure;Samples;Min_cycle;Max_cycle;Signal;HPM_P1;HPM_P2
2022/02/08 04:14:24;;;;;;;5.82;2.05;;;5.00;99.90;;;;;;4480543;23;20482;-91
2022/02/08 04:16:54;;;;;;;6.10;1.90;;;4.80;99.90;;;;;;4989203;28;20204;-90
2022/02/08 04:19:27;;;;;;;6.75;1.85;;;4.90;99.90;;;;;;4999582;28;20235;-90
2022/02/08 04:33:11;;;;;;;8.10;1.88;;;5.30;99.90;;;;;;4984341;28;20200;-90
2022/02/08 04:35:47;;;;;;;9.73;2.25;;;5.30;99.90;;;;;;4983834;28;20231;-91
2022/02/08 04:38:33;;;;;;;6.13;1.75;;;5.20;99.90;;;;;;4986985;28;20176;-89
2022/02/08 04:41:04;;;;;;;10.05;2.30;;;5.00;99.90;;;;;;4998471;28;20222;-91
2022/02/08 04:43:39;;;;;;;9.30;1.77;;;4.90;99.90;;;;;;4997353;28;21648;-91
2022/02/08 04:46:18;;;;;;;9.40;2.00;;;5.20;99.90;;;;;;4987959;28;20264;-90
2022/02/08 04:48:53;;;;;;;7.88;2.08;;;4.90;99.90;;;;;;4998162;28;20275;-90
2022/02/08 04:51:26;;;;;;;6.90;1.90;;;4.90;99.90;;;;;;4985944;28;20303;-91
2022/02/08 04:54:02;;;;;;;7.88;2.20;;;5.30;99.90;;;;;;4985922;28;20225;-91
2022/02/08 04:56:40;;;;;;;5.95;1.90;;;5.20;99.90;;;;;;4996479;28;20284;-90
2022/02/08 04:59:32;;;;;;;7.30;1.80;;;5.20;99.90;;;;;;4999062;28;20221;-88
2022/02/08 05:02:18;;;;;;;8.15;1.73;;;4.90;99.90;;;;;;4998459;28;20185;-90
2022/02/08 05:27:18;;;;;;;9.65;1.90;;;5.50;99.90;;;;;;4990888;28;20220;-90
2022/02/08 05:35:37;;;;;;;6.25;2.00;;;5.20;99.90;;;;;;4988872;28;20720;-91
2022/02/08 05:49:23;;;;;;;13.32;2.33;;;5.70;99.90;;;;;;4980618;28;20600;-89
2022/02/08 05:54:40;;;;;;;6.72;2.00;;;5.80;99.90;;;;;;4977879;28;20648;-90
2022/02/08 05:57:08;;;;;;;5.13;1.73;;;5.50;99.90;;;;;;4982790;28;20232;-91
2022/02/08 05:59:36;;;;;;;6.03;1.98;;;5.80;99.90;;;;;;4981992;28;20287;-91
2022/02/08 06:02:04;;;;;;;5.03;1.80;;;5.10;99.90;;;;;;4981737;28;20220;-89
2022/02/08 06:04:34;;;;;;;6.00;2.80;;;5.60;99.90;;;;;;4982147;28;20304;-90
2022/02/08 06:07:02;;;;;;;8.55;1.98;;;5.60;99.90;;;;;;4982961;28;20219;-91
2022/02/08 06:09:29;;;;;;;5.97;1.90;;;5.60;99.90;;;;;;4982768;28;20209;-92
2022/02/08 06:11:56;;;;;;;8.77;2.47;;;5.30;99.90;;;;;;4990128;28;20221;-92
2022/02/08 06:14:25;;;;;;;10.30;2.50;;;5.20;99.90;;;;;;4986633;28;20259;-90
2022/02/08 06:16:52;;;;;;;6.15;2.40;;;5.60;99.90;;;;;;4989607;28;20209;-93
2022/02/08 06:19:19;;;;;;;6.32;2.30;;;5.50;99.90;;;;;;4989291;28;20260;-91
2022/02/08 06:21:46;;;;;;;6.70;2.58;;;5.10;99.90;;;;;;4997377;28;20205;-91
2022/02/08 06:24:15;;;;;;;5.75;2.05;;;5.90;99.90;;;;;;4992540;28;20290;-90
2022/02/08 06:26:42;;;;;;;10.30;2.33;;;5.70;99.90;;;;;;4994903;28;20205;-90
2022/02/08 06:29:13;;;;;;;11.63;2.45;;;5.30;99.90;;;;;;4998247;28;20205;-91
2022/02/08 06:31:42;;;;;;;8.00;1.92;;;5.50;99.90;;;;;;4998033;28;20192;-91
2022/02/08 06:34:09;;;;;;;4.68;1.80;;;5.40;99.90;;;;;;4991708;28;20256;-90
2022/02/08 06:36:39;;;;;;;6.80;2.15;;;5.80;99.90;;;;;;4995326;28;20204;-90
2022/02/08 06:39:06;;;;;;;6.22;2.00;;;5.80;99.90;;;;;;4989392;28;20229;-91
2022/02/08 06:41:35;;;;;;;8.63;2.20;;;6.00;99.90;;;;;;4994550;28;20201;-90
2022/02/08 06:44:03;;;;;;;5.30;1.92;;;5.90;99.90;;;;;;5000251;28;20224;-89
2022/02/08 06:46:30;;;;;;;6.28;1.90;;;5.90;99.90;;;;;;4999637;28;20196;-90
2022/02/08 06:48:57;;;;;;;6.95;2.20;;;5.50;99.90;;;;;;4990017;28;20268;-90
2022/02/08 06:51:24;;;;;;;11.95;2.22;;;5.50;99.90;;;;;;4990096;28;20228;-92
2022/02/08 06:53:51;;;;;;;16.25;3.45;;;5.90;99.90;;;;;;4988588;28;20236;-92
2022/02/08 06:56:18;;;;;;;10.43;3.15;;;5.90;99.90;;;;;;4987644;28;20208;-92
2022/02/08 06:58:56;;;;;;;5.50;1.85;;;5.30;99.90;;;;;;4987111;28;20205;-92
2022/02/08 07:01:27;;;;;;;8.93;2.67;;;5.50;99.90;;;;;;4992767;28;20217;-91
2022/02/08 07:03:54;;;;;;;9.32;2.40;;;5.70;99.90;;;;;;4997941;28;20235;-91
2022/02/08 07:06:22;;;;;;;9.35;2.25;;;5.60;99.90;;;;;;4992510;28;20212;-90
2022/02/08 07:08:49;;;;;;;7.95;2.45;;;5.40;99.90;;;;;;4997579;28;20229;-92
2022/02/08 07:11:17;;;;;;;11.48;2.42;;;5.90;99.90;;;;;;4990303;28;20225;-91
2022/02/08 07:13:53;;;;;;;11.70;2.92;;;5.80;99.90;;;;;;4991866;28;20236;-90
2022/02/08 07:16:21;;;;;;;7.75;2.20;;;5.60;99.90;;;;;;4995053;28;20208;-90
2022/02/08 07:18:49;;;;;;;5.70;2.20;;;5.90;99.90;;;;;;4990505;28;20205;-90
2022/02/08 07:21:19;;;;;;;9.35;2.70;;;6.20;99.90;;;;;;4990272;28;20201;-92
2022/02/08 07:23:46;;;;;;;7.88;2.65;;;6.20;99.90;;;;;;4993276;28;20273;-91
2022/02/08 07:26:13;;;;;;;15.35;2.47;;;6.20;99.90;;;;;;4994560;28;20209;-92
2022/02/08 07:28:42;;;;;;;5.97;2.10;;;6.30;99.90;;;;;;4989607;28;20200;-90
2022/02/08 07:31:19;;;;;;;10.45;1.95;;;6.40;99.90;;;;;;4989615;28;20216;-92
2022/02/08 07:33:56;;;;;;;8.18;2.15;;;6.40;99.90;;;;;;4989588;28;20291;-92
2022/02/08 07:36:33;;;;;;;7.25;2.67;;;6.50;99.90;;;;;;4986490;28;20201;-92
2022/02/08 07:39:00;;;;;;;10.48;2.20;;;6.50;99.90;;;;;;4987994;28;20215;-89
2022/02/08 07:41:40;;;;;;;6.43;1.98;;;6.50;99.90;;;;;;4993002;28;20203;-89
2022/02/08 07:44:15;;;;;;;13.25;3.97;;;6.60;99.90;;;;;;4986313;28;20237;-89
2022/02/08 07:46:52;;;;;;;8.38;2.53;;;6.60;99.90;;;;;;4984409;28;20199;-88
2022/02/08 07:49:22;;;;;;;6.45;2.90;;;6.70;99.90;;;;;;4983083;28;20200;-91
2022/02/08 07:51:51;;;;;;;5.75;2.28;;;6.70;99.90;;;;;;4985868;28;20205;-89
2022/02/08 07:54:18;;;;;;;6.03;1.92;;;6.80;99.90;;;;;;4986261;28;20228;-89
2022/02/08 07:56:45;;;;;;;9.68;2.17;;;6.70;99.90;;;;;;4983009;28;20257;-89
2022/02/08 07:59:15;;;;;;;8.85;2.63;;;6.70;99.90;;;;;;4980674;28;20273;-90
2022/02/08 08:01:47;;;;;;;10.63;2.58;;;6.70;99.90;;;;;;4982822;28;20240;-90
2022/02/08 08:04:53;;;;;;;7.82;1.60;;;6.40;99.90;;;;;;4983420;28;20272;-89
2022/02/08 08:07:25;;;;;;;7.38;2.33;;;6.80;99.90;;;;;;4982476;28;20208;-90
2022/02/08 08:10:46;;;;;;;8.23;2.22;;;6.90;99.90;;;;;;4999224;28;20256;-90
2022/02/08 08:13:30;;;;;;;8.63;2.67;;;6.90;99.90;;;;;;4996052;28;20236;-89
2022/02/08 08:16:05;;;;;;;11.82;2.90;;;7.10;99.90;;;;;;4992776;28;20227;-89
2022/02/08 08:18:58;;;;;;;7.18;2.55;;;7.10;99.90;;;;;;4990090;28;20212;-89
2022/02/08 08:21:26;;;;;;;7.35;2.50;;;7.20;99.90;;;;;;4985154;28;20220;-89
2022/02/08 08:23:55;;;;;;;10.45;2.35;;;7.20;99.90;;;;;;4995625;28;20229;-88
2022/02/08 08:26:36;;;;;;;10.05;2.45;;;7.30;99.90;;;;;;4994083;28;20296;-89
2022/02/08 08:29:05;;;;;;;8.57;2.13;;;7.10;99.90;;;;;;4989228;28;20217;-88
2022/02/08 08:31:34;;;;;;;6.63;2.42;;;7.20;99.90;;;;;;4982604;28;20263;-88
2022/02/08 08:34:03;;;;;;;10.77;2.17;;;7.30;99.90;;;;;;4984417;28;20247;-91
2022/02/08 08:36:36;;;;;;;9.90;2.53;;;7.20;99.90;;;;;;4987587;28;20301;-90
2022/02/08 08:39:10;;;;;;;7.82;1.70;;;7.30;99.90;;;;;;4993232;28;20189;-89
2022/02/08 08:41:44;;;;;;;6.93;1.70;;;7.30;99.90;;;;;;4988752;28;20193;-89
2022/02/08 08:52:40;;;;;;;9.70;2.95;;;7.10;99.90;;;;;;4981981;28;20193;-91
2022/02/08 08:55:11;;;;;;;6.45;2.03;;;7.10;99.90;;;;;;4981499;28;20296;-90
2022/02/08 08:57:39;;;;;;;9.20;1.80;;;7.10;99.90;;;;;;4982719;28;20250;-91
2022/02/08 09:00:13;;;;;;;13.35;2.60;;;7.00;99.90;;;;;;4986591;28;20244;-90
2022/02/08 09:02:43;;;;;;;5.38;1.95;;;7.00;99.90;;;;;;4988456;28;20187;-89
2022/02/08 09:05:14;;;;;;;6.88;2.25;;;7.00;99.90;;;;;;4997506;28;20280;-91
2022/02/08 09:07:42;;;;;;;10.35;2.63;;;7.00;99.90;;;;;;4998016;28;20189;-91
2022/02/08 09:10:14;;;;;;;7.85;2.10;;;6.60;99.90;;;;;;4992276;28;20217;-91
2022/02/08 09:13:01;;;;;;;12.25;2.70;;;7.20;99.90;;;;;;4988713;28;20193;-91
2022/02/08 09:21:26;;;;;;;8.35;2.28;;;7.40;99.90;;;;;;4990647;28;20224;-91
2022/02/08 09:29:36;;;;;;;7.00;2.22;;;7.70;99.90;;;;;;4968143;28;20653;-92
2022/02/08 09:32:17;;;;;;;6.93;2.05;;;7.70;99.90;;;;;;4992202;28;20272;-92
2022/02/08 09:34:47;;;;;;;7.43;2.50;;;7.80;99.90;;;;;;4991915;28;20268;-90
2022/02/08 09:37:18;;;;;;;8.77;2.00;;;7.90;99.90;;;;;;4992604;28;20248;-92
2022/02/08 09:39:56;;;;;;;10.57;2.22;;;8.10;99.90;;;;;;4995274;28;20201;-91
2022/02/08 09:42:26;;;;;;;9.05;2.60;;;8.00;99.90;;;;;;4982901;28;20224;-89
2022/02/08 09:44:55;;;;;;;8.48;2.45;;;8.00;99.90;;;;;;4982807;28;20745;-89
2022/02/08 09:47:33;;;;;;;5.75;2.42;;;8.10;99.90;;;;;;4981959;28;20701;-88
2022/02/08 09:50:16;;;;;;;10.00;2.22;;;8.10;99.90;;;;;;4988286;28;20208;-90
2022/02/08 09:52:57;;;;;;;6.70;2.40;;;8.10;99.90;;;;;;5001980;28;20224;-89
2022/02/08 09:55:37;;;;;;;7.95;2.58;;;8.20;99.90;;;;;;5002055;28;20480;-91
2022/02/08 10:04:20;;;;;;;7.35;2.33;;;8.40;99.90;;;;;;4942858;29;20241;-90
2022/02/08 10:10:25;;;;;;;8.15;3.35;;;8.60;99.90;;;;;;4932112;29;20207;-90
2022/02/08 10:13:15;;;;;;;9.07;2.40;;;8.70;99.90;;;;;;4938567;29;20258;-89
2022/02/08 10:23:55;;;;;;;9.48;2.53;;;8.90;99.90;;;;;;4985064;28;20413;-85
2022/02/08 10:26:31;;;;;;;11.07;1.83;;;9.10;99.90;;;;;;4987030;28;20233;-85
2022/02/08 10:29:01;;;;;;;8.23;2.30;;;9.20;99.90;;;;;;4987018;28;20507;-86
2022/02/08 10:40:05;;;;;;;6.15;2.35;;;9.40;99.90;;;;;;5081391;27;20418;-85
2022/02/08 10:42:32;;;;;;;7.67;2.07;;;9.50;99.90;;;;;;5075539;28;20192;-86
2022/02/08 10:45:00;;;;;;;7.67;2.10;;;9.50;99.90;;;;;;5076507;28;20491;-85
2022/02/08 10:47:38;;;;;;;10.27;2.47;;;9.60;99.90;;;;;;5085526;28;20497;-85
2022/02/08 10:50:08;;;;;;;4.70;1.80;;;9.60;99.90;;;;;;5078099;28;20610;-86
2022/02/08 10:52:37;;;;;;;25.42;2.88;;;9.60;99.90;;;;;;5075063;28;20980;-85
2022/02/08 10:55:13;;;;;;;7.63;1.83;;;9.60;99.90;;;;;;5073927;28;20216;-86
2022/02/08 10:57:50;;;;;;;6.87;2.03;;;9.60;99.90;;;;;;5078418;28;20474;-86
2022/02/08 11:00:23;;;;;;;6.10;1.97;;;9.60;99.90;;;;;;5077263;28;20438;-87
2022/02/08 11:02:52;;;;;;;13.53;2.93;;;9.70;99.90;;;;;;5075202;28;20625;-85
2022/02/08 11:05:27;;;;;;;10.67;2.27;;;9.60;99.90;;;;;;5075843;28;20448;-86
2022/02/08 11:08:10;;;;;;;5.57;1.93;;;9.70;99.90;;;;;;5076820;28;20422;-85
2022/02/08 11:13:39;;;;;;;8.07;1.60;;;10.00;99.90;;;;;;5141019;28;20496;-85
2022/02/08 11:16:21;;;;;;;6.57;2.17;;;10.10;99.90;;;;;;5081749;28;20471;-85
2022/02/08 11:21:56;;;;;;;8.20;2.30;;;10.40;99.90;;;;;;5088005;27;20415;-86
2022/02/08 11:24:28;;;;;;;5.90;2.53;;;10.70;99.90;;;;;;5084990;28;20446;-86
2022/02/08 11:27:06;;;;;;;8.30;2.20;;;10.80;99.60;;;;;;5077898;28;20962;-86
2022/02/08 11:29:39;;;;;;;7.30;2.40;;;11.00;99.70;;;;;;5077091;28;20415;-85
2022/02/08 11:32:17;;;;;;;7.03;2.57;;;11.10;99.00;;;;;;5076840;28;20456;-85
2022/02/08 11:46:22;;;;;;;12.10;3.03;;;11.30;99.70;;;;;;5063432;28;20456;-86
2022/02/08 11:52:17;;;;;;;7.30;2.73;;;11.70;99.90;;;;;;5061208;28;20507;-85
2022/02/08 12:00:58;;;;;;;6.23;2.13;;;11.80;99.90;;;;;;5049587;28;20440;-86
2022/02/08 12:06:50;;;;;;;4.90;1.80;;;12.00;99.90;;;;;;5060552;28;20457;-85
2022/02/08 12:09:48;;;;;;;7.03;2.57;;;11.90;99.90;;;;;;5061516;27;20453;-86
2022/02/08 12:35:05;;;;;;;3.20;1.00;;;11.80;99.90;;;;;;5056330;27;20476;-85
2022/02/08 12:54:34;;;;;;;5.10;1.30;;;12.30;99.90;;;;;;5063300;27;20481;-86
2022/02/08 12:57:19;;;;;;;5.47;1.40;;;12.30;99.90;;;;;;5062050;28;20447;-84
2022/02/08 13:00:10;;;;;;;5.70;1.50;;;12.30;99.90;;;;;;5059820;28;20433;-85
2022/02/08 13:02:48;;;;;;;7.43;1.50;;;12.30;99.90;;;;;;5058984;28;20425;-85
2022/02/08 13:32:10;;;;;;;6.23;1.40;;;11.90;99.90;;;;;;5062766;28;20412;-86
2022/02/08 14:04:24;;;;;;;4.67;1.60;;;11.90;99.90;;;;;;5061017;28;20462;-85
2022/02/08 14:06:27;;;;;;;4.80;1.50;;;11.80;99.90;;;;;;5062089;28;20472;-86
2022/02/08 14:11:55;;;;;;;5.50;1.93;;;11.70;99.90;;;;;;5038189;27;20448;-85
2022/02/08 14:14:49;;;;;;;5.90;1.70;;;11.70;99.90;;;;;;5058399;28;20821;-86
2022/02/08 14:20:43;;;;;;;6.27;1.87;;;11.90;99.90;;;;;;5070173;27;20465;-85
2022/02/08 14:23:26;;;;;;;5.47;2.10;;;12.00;99.90;;;;;;5064513;28;20463;-86
2022/02/08 14:37:05;;;;;;;5.67;1.37;;;11.90;99.90;;;;;;5060803;28;20539;-85
2022/02/08 15:07:26;;;;;;;5.80;1.17;;;11.50;99.90;;;;;;5058792;28;20452;-86
2022/02/08 15:09:56;;;;;;;4.20;1.60;;;11.50;99.90;;;;;;5058065;28;20474;-85
2022/02/08 15:12:32;;;;;;;5.00;1.60;;;11.50;99.90;;;;;;5056829;28;20540;-85
2022/02/08 15:15:13;;;;;;;4.30;1.83;;;11.40;99.90;;;;;;5057923;27;20482;-86
2022/02/08 15:17:43;;;;;;;7.30;1.43;;;11.30;99.90;;;;;;5059234;28;20973;-86
2022/02/08 15:20:13;;;;;;;3.57;1.17;;;11.30;99.90;;;;;;5063499;28;20445;-86
2022/02/08 15:22:40;;;;;;;3.67;1.10;;;11.30;99.90;;;;;;5063890;28;20468;-86
2022/02/08 15:25:12;;;;;;;4.43;1.57;;;11.40;99.90;;;;;;5062872;28;20461;-86
2022/02/08 15:27:40;;;;;;;3.50;1.10;;;11.40;99.90;;;;;;5063738;27;20524;-86
2022/02/08 15:30:10;;;;;;;4.77;1.30;;;11.40;99.90;;;;;;5071727;27;20490;-85
2022/02/08 15:32:38;;;;;;;4.47;1.57;;;11.40;99.90;;;;;;5073634;27;20832;-86
2022/02/08 15:35:06;;;;;;;4.70;1.50;;;11.40;99.90;;;;;;5061867;28;20480;-85
2022/02/08 15:37:35;;;;;;;4.10;1.40;;;11.40;99.90;;;;;;5059914;28;20507;-86
2022/02/08 15:40:06;;;;;;;4.17;1.20;;;11.30;99.90;;;;;;5060491;28;20466;-85
2022/02/08 15:42:34;;;;;;;5.13;1.47;;;11.30;99.90;;;;;;5060960;28;20436;-86
2022/02/08 15:45:10;;;;;;;5.03;1.77;;;11.30;99.90;;;;;;5061793;28;20445;-85
2022/02/08 15:47:44;;;;;;;3.97;1.00;;;11.30;99.90;;;;;;5062392;28;20471;-85
2022/02/08 15:50:17;;;;;;;4.10;0.97;;;11.20;99.90;;;;;;5060967;28;20504;-86
2022/02/08 15:53:06;;;;;;;6.30;1.30;;;11.10;99.90;;;;;;5062174;28;20484;-86
2022/02/08 15:55:41;;;;;;;4.60;1.77;;;11.00;99.90;;;;;;5060752;28;20531;-85
2022/02/08 15:58:20;;;;;;;4.37;1.40;;;10.90;99.90;;;;;;5061054;27;20523;-86
2022/02/08 16:01:04;;;;;;;3.70;1.33;;;11.10;99.90;;;;;;5073339;28;20436;-86
2022/02/08 16:09:26;;;;;;;4.33;0.90;;;11.00;99.90;;;;;;4998442;28;20473;-85
2022/02/08 16:12:42;;;;;;;7.17;1.33;;;11.00;99.90;;;;;;4999875;28;20842;-85
2022/02/08 16:26:06;;;;;;;3.67;1.00;;;11.00;99.90;;;;;;5058199;22;20492;-89
2022/02/08 18:06:10;;;;;;;9.83;2.90;;;10.70;99.90;;;;;;5004335;23;20494;-90
2022/02/08 18:12:55;;;;;;;8.37;2.30;;;10.70;99.90;;;;;;4996053;28;20445;-92
2022/02/08 19:07:22;;;;;;;5.90;1.83;;;11.00;99.90;;;;;;4993841;28;20429;-92
2022/02/08 19:32:33;;;;;;;7.20;2.80;;;10.90;99.90;;;;;;5012954;28;20465;-91
2022/02/08 19:35:39;;;;;;;11.20;2.37;;;10.80;99.90;;;;;;5012000;28;20502;-93
2022/02/08 19:38:29;;;;;;;7.73;2.03;;;10.90;99.90;;;;;;5006712;28;20908;-92
2022/02/08 19:48:18;;;;;;;7.63;2.60;;;10.80;99.90;;;;;;4921288;29;20530;-93
2022/02/08 19:51:23;;;;;;;8.17;2.50;;;10.80;99.90;;;;;;4991867;28;20477;-87
2022/02/08 19:54:54;;;;;;;4.97;2.17;;;10.70;99.90;;;;;;5020581;28;20468;-88
2022/02/08 19:57:26;;;;;;;7.40;2.23;;;10.40;99.90;;;;;;5017581;28;20471;-91
2022/02/08 20:00:24;;;;;;;8.17;2.50;;;10.20;99.90;;;;;;5015150;28;20420;-90
2022/02/08 20:03:33;;;;;;;7.53;2.43;;;10.10;99.90;;;;;;5020460;28;20450;-88
2022/02/08 20:19:07;;;;;;;9.95;3.08;;;10.00;99.90;;;;;;4973424;28;20517;-91
2022/02/08 20:21:55;;;;;;;7.30;3.17;;;10.00;99.90;;;;;;4975219;28;20207;-91
2022/02/08 20:24:30;;;;;;;11.88;3.30;;;9.90;99.90;;;;;;4978558;28;20443;-90
2022/02/08 20:27:38;;;;;;;5.25;2.60;;;9.90;99.90;;;;;;4980085;28;20264;-91
2022/02/08 20:30:46;;;;;;;7.30;3.03;;;10.10;99.90;;;;;;4980887;28;20194;-89
2022/02/08 22:19:05;;;;;;;12.20;6.27;;;9.60;99.90;;;;;;4610889;23;20265;-87
2022/02/08 22:21:44;;;;;;;11.00;6.10;;;9.60;99.90;;;;;;4999408;28;20421;-87
2022/02/08 22:24:19;;;;;;;15.20;5.63;;;9.60;99.90;;;;;;5000548;28;20840;-86
2022/02/08 22:27:23;;;;;;;10.68;5.22;;;9.50;99.90;;;;;;5002239;28;20440;-86
2022/02/08 22:29:59;;;;;;;8.35;5.07;;;9.50;99.90;;;;;;5001374;28;20212;-86
2022/02/08 22:32:30;;;;;;;8.80;4.43;;;9.70;99.90;;;;;;5001844;28;20199;-86
2022/02/08 22:35:09;;;;;;;12.85;4.20;;;9.90;99.90;;;;;;5000616;28;20467;-87
2022/02/08 22:37:39;;;;;;;7.40;3.97;;;9.90;99.90;;;;;;5000431;28;20234;-86
2022/02/08 22:40:24;;;;;;;11.13;5.17;;;9.90;99.90;;;;;;5000666;28;20237;-86
2022/02/08 22:43:02;;;;;;;11.50;5.45;;;9.70;99.90;;;;;;5001361;28;20471;-86
2022/02/08 22:45:29;;;;;;;10.07;5.17;;;9.70;99.90;;;;;;5000505;28;20216;-86
2022/02/08 22:47:57;;;;;;;11.75;4.65;;;9.90;99.90;;;;;;5001505;28;21060;-86
2022/02/08 22:50:25;;;;;;;10.23;4.87;;;9.90;99.90;;;;;;5001774;28;20209;-86
2022/02/08 22:52:52;;;;;;;11.70;4.60;;;9.80;99.90;;;;;;5010339;28;20460;-86
2022/02/08 22:55:20;;;;;;;9.37;4.70;;;9.60;99.90;;;;;;5002772;28;20258;-87
2022/02/08 22:57:47;;;;;;;13.80;5.17;;;9.60;99.90;;;;;;5000677;28;20476;-87
2022/02/08 23:00:14;;;;;;;9.87;4.30;;;9.60;99.90;;;;;;5004285;28;20589;-86
2022/02/08 23:02:43;;;;;;;8.87;3.70;;;9.50;99.90;;;;;;5005537;28;20507;-86
2022/02/08 23:05:19;;;;;;;12.03;4.57;;;9.50;99.90;;;;;;5004838;28;20461;-86
2022/02/08 23:07:49;;;;;;;7.20;3.50;;;9.60;99.90;;;;;;5004731;28;20477;-87
2022/02/08 23:10:19;;;;;;;7.70;3.00;;;9.80;99.90;;;;;;5004242;28;20485;-87
2022/02/08 23:13:15;;;;;;;10.53;3.77;;;9.90;99.90;;;;;;5003434;28;20460;-87
2022/02/08 23:16:31;;;;;;;8.90;3.50;;;10.00;99.90;;;;;;5004356;28;20512;-87
2022/02/08 23:38:15;;;;;;;10.03;3.03;;;9.80;99.90;;;;;;5007866;28;20242;-86
2022/02/08 23:40:45;;;;;;;6.78;3.58;;;9.70;99.90;;;;;;5008615;28;20452;-87
2022/02/08 23:43:15;;;;;;;10.27;3.72;;;9.60;99.90;;;;;;5011573;28;20614;-86
2022/02/08 23:45:43;;;;;;;11.10;4.47;;;9.60;99.90;;;;;;5020039;28;20199;-88
2022/02/08 23:48:11;;;;;;;9.90;3.80;;;9.60;99.90;;;;;;5012442;28;20473;-87
2022/02/08 23:50:41;;;;;;;9.60;3.57;;;9.60;99.90;;;;;;5007384;28;20545;-86
2022/02/08 23:53:16;;;;;;;10.03;3.57;;;9.70;99.90;;;;;;5005895;28;20483;-87
2022/02/08 23:55:54;;;;;;;8.40;3.70;;;9.70;99.90;;;;;;5006422;28;20475;-87
2022/02/08 23:58:21;;;;;;;12.23;3.83;;;9.80;99.90;;;;;;5005262;28;20576;-86
